Time;durP1;ratioP1;P1;durP2;ratioP2;P2;SDS_P1;SDS_P2;PMS_P1;PMS_P2;Temp;Humidity;BMP_temperature;BMP_pressure;BME280_temperature;BME280_humidity;BME280_pressure;Samples;Min_cycle;Max_cycle;Signal;HPM_P1;HPM_P2
2022/10/24 00:00:57;;;;;;;7.87;5.87;;;;;;;10.49;88.96;100789.48;1789181;79;20829;-87
2022/10/24 00:03:24;;;;;;;7.55;6.53;;;;;;;10.48;88.73;100802.23;1789565;80;21856;-86
2022/10/24 00:05:52;;;;;;;7.72;6.97;;;;;;;10.46;88.49;100794.91;1789403;80;20915;-87
2022/10/24 00:08:19;;;;;;;13.62;8.10;;;;;;;10.42;88.35;100792.08;1789155;79;20935;-86
2022/10/24 00:10:47;;;;;;;8.55;7.55;;;;;;;10.37;88.36;100797.11;1789612;79;20883;-86
2022/10/24 00:13:15;;;;;;;6.85;6.25;;;;;;;10.32;88.41;100800.47;1790094;80;20840;-85
2022/10/24 00:15:45;;;;;;;7.40;6.65;;;;;;;10.32;88.54;100804.88;1790655;79;20903;-86
2022/10/24 00:18:12;;;;;;;7.33;6.55;;;;;;;10.30;88.41;100807.57;1789654;80;20883;-88
2022/10/24 00:20:39;;;;;;;7.25;6.55;;;;;;;10.28;88.14;100808.56;1789374;80;20982;-88
2022/10/24 00:23:07;;;;;;;8.20;7.40;;;;;;;10.24;88.09;100811.80;1789134;80;20931;-87
2022/10/24 00:25:34;;;;;;;7.47;6.78;;;;;;;10.23;88.11;100812.75;1789234;80;20884;-87
2022/10/24 00:28:01;;;;;;;8.35;6.90;;;;;;;10.24;88.08;100813.59;1789195;80;21145;-88
2022/10/24 00:30:29;;;;;;;8.85;6.90;;;;;;;10.24;87.89;100813.11;1791588;80;20923;-87
2022/10/24 00:32:57;;;;;;;8.25;6.30;;;;;;;10.25;88.04;100815.27;1794791;80;20915;-87
2022/10/24 00:35:24;;;;;;;8.05;7.25;;;;;;;10.29;87.98;100816.37;1794882;79;20891;-88
2022/10/24 00:37:52;;;;;;;9.03;7.65;;;;;;;10.28;87.74;100814.64;1794794;80;21423;-88
2022/10/24 00:40:18;;;;;;;9.65;7.97;;;;;;;10.27;87.44;100814.27;1794874;80;21148;-88
2022/10/24 00:42:47;;;;;;;8.60;7.65;;;;;;;10.25;87.36;100816.13;1794729;79;20852;-88
2022/10/24 00:45:40;;;;;;;7.97;7.22;;;;;;;10.23;87.26;100812.75;1795019;80;21293;-88
2022/10/24 00:48:39;;;;;;;8.05;6.95;;;;;;;10.18;87.21;100812.13;1786382;79;20911;-86
2022/10/24 00:51:20;;;;;;;8.53;7.20;;;;;;;10.15;87.44;100813.63;1760716;80;20935;-86
2022/10/24 00:53:50;;;;;;;8.90;7.95;;;;;;;10.15;87.53;100818.39;1760427;81;21085;-87
2022/10/24 00:56:19;;;;;;;10.53;8.30;;;;;;;10.15;87.54;100813.63;1760132;81;20899;-87
2022/10/24 00:58:45;;;;;;;7.58;6.87;;;;;;;10.16;87.51;100821.89;1760195;80;21528;-88
2022/10/24 01:01:12;;;;;;;8.98;7.83;;;;;;;10.17;87.48;100816.53;1760051;80;21515;-88
2022/10/24 01:03:39;;;;;;;12.30;8.70;;;;;;;10.18;87.34;100829.17;1760356;80;21487;-86
2022/10/24 01:06:20;;;;;;;9.00;8.10;;;;;;;10.16;87.04;100821.41;1760192;81;21147;-88
2022/10/24 01:09:18;;;;;;;10.43;8.63;;;;;;;10.14;87.00;100829.82;1760397;80;20887;-87
2022/10/24 01:12:02;;;;;;;10.95;8.60;;;;;;;10.14;87.08;100822.44;1760435;81;20875;-86
2022/10/24 01:14:41;;;;;;;9.25;8.35;;;;;;;10.16;87.13;100830.59;1760416;80;20962;-87
2022/10/24 01:17:25;;;;;;;10.15;9.10;;;;;;;10.21;87.14;100836.05;1760389;80;20948;-87
2022/10/24 01:20:12;;;;;;;9.28;8.38;;;;;;;10.23;86.90;100839.43;1760374;81;21320;-87
2022/10/24 01:22:57;;;;;;;12.30;9.28;;;;;;;10.24;86.81;100836.70;1760146;81;20999;-88
2022/10/24 01:26:08;;;;;;;9.53;8.15;;;;;;;10.25;86.70;100840.16;1778043;80;20970;-88
2022/10/24 01:28:54;;;;;;;9.55;8.58;;;;;;;10.27;86.53;100847.04;1794626;80;20927;-88
2022/10/24 01:31:31;;;;;;;9.73;8.83;;;;;;;10.26;86.72;100844.02;1790509;79;20880;-87
2022/10/24 01:34:09;;;;;;;9.43;8.45;;;;;;;10.31;86.89;100847.73;1787522;80;21252;-88
2022/10/24 01:36:41;;;;;;;10.30;8.33;;;;;;;10.38;87.01;100845.14;1790193;80;20958;-87
2022/10/24 01:39:12;;;;;;;11.08;9.50;;;;;;;10.41;86.58;100849.39;1790138;79;20951;-88
2022/10/24 01:41:38;;;;;;;10.58;9.08;;;;;;;10.41;86.56;100855.95;1789059;80;20963;-87
2022/10/24 01:44:27;;;;;;;9.43;8.53;;;;;;;10.41;86.80;100855.47;1789142;79;20900;-87
2022/10/24 01:47:02;;;;;;;9.93;8.85;;;;;;;10.42;86.74;100867.64;1789108;80;21136;-87
2022/10/24 01:49:33;;;;;;;14.53;10.50;;;;;;;10.41;86.98;100865.13;1785370;80;20989;-88
2022/10/24 01:52:02;;;;;;;15.65;9.73;;;;;;;10.41;87.05;100865.13;1758392;79;20974;-88
2022/10/24 01:54:29;;;;;;;9.15;8.18;;;;;;;10.40;87.33;100866.03;1789171;79;20884;-87
2022/10/24 01:56:55;;;;;;;10.32;9.03;;;;;;;10.40;87.42;100872.59;1789148;79;20884;-88
2022/10/24 01:59:31;;;;;;;13.18;10.40;;;;;;;10.38;87.64;100873.98;1789202;79;21232;-88
2022/10/24 02:02:26;;;;;;;11.33;10.15;;;;;;;10.38;87.98;100875.28;1789030;80;20876;-87
2022/10/24 02:05:01;;;;;;;9.73;8.28;;;;;;;10.42;88.02;100877.28;1784165;80;20880;-88
2022/10/24 02:07:28;;;;;;;11.55;9.93;;;;;;;10.42;88.19;100874.66;1791709;80;20879;-88
2022/10/24 02:10:08;;;;;;;11.73;9.43;;;;;;;10.43;88.40;100876.38;1789096;80;20880;-87
2022/10/24 02:12:40;;;;;;;15.55;9.98;;;;;;;10.46;88.48;100878.81;1788174;80;21255;-87
2022/10/24 02:15:14;;;;;;;11.43;9.63;;;;;;;10.50;88.73;100880.34;1761209;80;20915;-88
2022/10/24 02:17:42;;;;;;;14.87;11.03;;;;;;;10.56;88.64;100881.28;1790118;80;20935;-88
2022/10/24 02:20:10;;;;;;;14.18;10.93;;;;;;;10.62;88.69;100884.05;1789272;80;21001;-88
2022/10/24 02:22:45;;;;;;;11.12;9.75;;;;;;;10.66;88.44;100882.95;1789676;79;20999;-87
2022/10/24 02:25:28;;;;;;;12.45;8.88;;;;;;;10.67;88.49;100886.80;1790618;79;21266;-89
2022/10/24 02:28:06;;;;;;;13.45;10.98;;;;;;;10.72;88.51;100890.48;1789188;80;20848;-88
2022/10/24 02:30:38;;;;;;;12.25;10.43;;;;;;;10.76;88.41;100884.97;1781327;80;20914;-88
2022/10/24 02:33:05;;;;;;;11.43;9.70;;;;;;;10.76;88.18;100890.22;1760125;80;20962;-89
2022/10/24 02:35:34;;;;;;;14.35;11.73;;;;;;;10.78;88.15;100886.17;1760188;80;20816;-89
2022/10/24 02:38:24;;;;;;;13.78;10.90;;;;;;;10.76;87.98;100890.22;1760064;80;21134;-89
2022/10/24 02:40:50;;;;;;;13.60;10.32;;;;;;;10.78;88.23;100892.30;1760012;81;20954;-88
2022/10/24 02:43:17;;;;;;;12.45;9.93;;;;;;;10.84;88.20;100892.86;1732706;81;20878;-89
2022/10/24 02:45:44;;;;;;;13.80;10.65;;;;;;;10.84;88.06;100892.39;1760151;81;20931;-89
2022/10/24 02:48:11;;;;;;;16.17;11.53;;;;;;;10.81;87.99;100894.36;1760193;81;20977;-89
2022/10/24 02:50:39;;;;;;;11.88;9.90;;;;;;;10.78;88.20;100893.60;1732740;81;21862;-88
2022/10/24 02:53:09;;;;;;;19.80;10.80;;;;;;;10.78;88.31;100892.73;1760088;81;20977;-88
2022/10/24 02:55:35;;;;;;;15.08;10.23;;;;;;;10.79;88.60;100894.44;1733118;81;20883;-88
2022/10/24 02:58:02;;;;;;;11.73;9.75;;;;;;;10.81;88.65;100892.58;1760053;81;21428;-88
2022/10/24 03:00:29;;;;;;;15.20;11.35;;;;;;;10.79;88.56;100887.88;1760072;81;21515;-89
2022/10/24 03:02:55;;;;;;;15.63;10.85;;;;;;;10.77;88.77;100895.83;1760201;81;21392;-88
2022/10/24 03:05:22;;;;;;;14.13;9.88;;;;;;;10.78;88.89;100894.91;1760104;81;21360;-87
2022/10/24 03:07:49;;;;;;;13.62;10.98;;;;;;;10.78;89.00;100894.05;1760091;81;20871;-88
2022/10/24 03:10:16;;;;;;;14.43;10.05;;;;;;;10.78;89.20;100890.98;1760679;81;20935;-88
2022/10/24 03:12:43;;;;;;;16.02;10.15;;;;;;;10.83;89.35;100893.78;1760962;81;20887;-87
2022/10/24 03:15:10;;;;;;;15.48;10.48;;;;;;;10.84;89.23;100898.95;1762580;80;21122;-87
2022/10/24 03:17:36;;;;;;;14.35;9.98;;;;;;;10.83;89.30;100897.72;1761733;80;20860;-87
2022/10/24 03:20:04;;;;;;;13.65;10.40;;;;;;;10.82;89.43;100895.56;1761258;81;20887;-89
2022/10/24 03:22:31;;;;;;;12.98;9.53;;;;;;;10.84;89.67;100902.05;1761583;81;21395;-90
2022/10/24 03:25:00;;;;;;;14.38;10.20;;;;;;;10.84;89.66;100900.27;1762245;81;20886;-85
2022/10/24 03:27:26;;;;;;;14.40;9.20;;;;;;;10.86;89.71;100900.19;1763325;80;21277;-86
2022/10/24 03:29:53;;;;;;;10.30;9.23;;;;;;;10.86;89.71;100898.88;1760317;81;20950;-88
2022/10/24 03:32:19;;;;;;;12.33;9.50;;;;;;;10.86;89.71;100902.81;1760319;80;20950;-88
2022/10/24 03:34:47;;;;;;;11.55;8.05;;;;;;;10.85;89.68;100899.34;1760299;81;20882;-89
2022/10/24 03:37:13;;;;;;;10.90;8.53;;;;;;;10.85;89.77;100907.22;1759991;81;20919;-88
2022/10/24 03:39:39;;;;;;;12.85;8.78;;;;;;;10.86;89.94;100905.44;1759953;81;21947;-88
2022/10/24 03:42:06;;;;;;;21.57;9.45;;;;;;;10.91;89.97;100906.01;1759987;80;20835;-88
2022/10/24 03:45:51;;;;;;;14.73;9.35;;;;;;;10.99;89.82;100899.87;1798008;79;22549;-88
2022/10/24 03:48:18;;;;;;;8.60;7.45;;;;;;;10.91;89.40;100915.19;1758576;81;20998;-87
2022/10/24 03:50:44;;;;;;;9.35;7.55;;;;;;;10.85;89.49;100906.34;1758413;80;21790;-87
2022/10/24 03:53:11;;;;;;;10.98;7.62;;;;;;;10.82;89.58;100909.16;1758396;81;20924;-87
2022/10/24 03:55:39;;;;;;;11.90;8.43;;;;;;;10.79;89.60;100911.49;1758424;80;21410;-87
2022/10/24 03:58:05;;;;;;;9.70;7.55;;;;;;;10.78;89.61;100914.59;1758438;80;21354;-86
2022/10/24 04:00:37;;;;;;;23.38;18.50;;;;;;;10.77;89.55;100917.28;1758621;80;20960;-87
2022/10/24 04:03:00;;;;;;;7.12;6.22;;;;;;;10.75;89.51;100920.46;1757861;80;21252;-87
2022/10/24 04:05:27;;;;;;;8.23;6.40;;;;;;;10.73;89.33;100922.32;1758350;81;20928;-87
2022/10/24 04:07:53;;;;;;;9.03;6.72;;;;;;;10.70;89.27;100918.09;1758051;80;21528;-87
2022/10/24 04:10:19;;;;;;;10.30;7.60;;;;;;;10.70;89.38;100922.03;1757210;80;21458;-87
2022/10/24 04:12:46;;;;;;;8.73;5.87;;;;;;;10.70;88.91;100927.28;1757476;81;20865;-86
2022/10/24 04:15:12;;;;;;;7.85;5.72;;;;;;;10.67;88.73;100926.59;1757476;80;21974;-86
2022/10/24 04:17:39;;;;;;;6.08;5.47;;;;;;;10.65;88.49;100922.77;1758360;80;20971;-87
2022/10/24 04:20:06;;;;;;;7.55;5.40;;;;;;;10.64;88.41;100928.08;1758940;80;20889;-87
2022/10/24 04:22:33;;;;;;;7.10;6.05;;;;;;;10.62;88.30;100926.01;1757732;80;21038;-88
2022/10/24 04:24:59;;;;;;;6.53;5.55;;;;;;;10.62;88.42;100926.84;1757681;80;20936;-87
2022/10/24 04:27:26;;;;;;;4.92;4.40;;;;;;;10.65;88.34;100923.20;1757122;80;21162;-87
2022/10/24 04:29:52;;;;;;;5.90;5.03;;;;;;;10.66;88.37;100932.31;1756598;81;20963;-87
2022/10/24 04:32:19;;;;;;;5.85;5.25;;;;;;;10.68;88.06;100933.07;1756505;81;21014;-87
2022/10/24 04:34:46;;;;;;;5.33;4.75;;;;;;;10.67;88.10;100931.39;1756606;81;20973;-87
2022/10/24 04:37:13;;;;;;;6.70;4.87;;;;;;;10.71;88.05;100931.58;1756819;80;20971;-86
2022/10/24 04:39:41;;;;;;;4.75;4.15;;;;;;;10.72;87.89;100939.00;1756501;80;21134;-88
2022/10/24 04:42:09;;;;;;;5.58;4.95;;;;;;;10.75;87.84;100941.45;1757410;81;20936;-87
2022/10/24 04:44:35;;;;;;;5.37;4.58;;;;;;;10.78;87.57;100943.89;1758620;80;20908;-88
2022/10/24 04:47:02;;;;;;;11.43;6.83;;;;;;;10.77;87.35;100943.52;1758725;80;20976;-86
2022/10/24 04:49:28;;;;;;;6.05;4.08;;;;;;;10.79;87.29;100945.59;1759549;80;20853;-88
2022/10/24 04:51:55;;;;;;;5.37;4.87;;;;;;;10.85;87.34;100947.02;1759320;81;21250;-89
2022/10/24 04:54:22;;;;;;;5.78;5.17;;;;;;;10.89;87.09;100944.61;1758536;80;20892;-89
2022/10/24 04:56:48;;;;;;;8.80;5.30;;;;;;;10.91;86.68;100947.52;1758117;81;20849;-87
2022/10/24 04:59:15;;;;;;;5.65;5.05;;;;;;;10.91;86.25;100958.02;1758042;80;20928;-88
2022/10/24 05:01:42;;;;;;;5.60;5.10;;;;;;;10.88;86.21;100956.05;1757916;81;20932;-87
2022/10/24 05:04:08;;;;;;;7.72;5.20;;;;;;;10.90;86.20;100965.99;1757923;80;21745;-88
2022/10/24 05:06:35;;;;;;;6.75;4.35;;;;;;;10.89;85.95;100966.91;1757964;80;21343;-88
2022/10/24 05:09:01;;;;;;;6.05;4.92;;;;;;;10.90;85.95;100968.14;1757924;81;20888;-87
2022/10/24 05:11:28;;;;;;;6.72;4.22;;;;;;;10.91;85.73;100968.51;1758010;81;20948;-87
2022/10/24 05:13:55;;;;;;;105.87;67.80;;;;;;;10.91;85.61;100975.06;1758102;80;21393;-87
2022/10/24 05:16:21;;;;;;;5.90;4.72;;;;;;;10.94;85.65;100980.64;1758316;81;21401;-86
2022/10/24 05:18:48;;;;;;;6.60;5.97;;;;;;;11.04;85.99;100994.92;1759760;80;21367;-88
2022/10/24 05:21:14;;;;;;;10.00;6.72;;;;;;;11.16;85.91;100999.49;1758436;80;20960;-85
2022/10/24 05:23:41;;;;;;;7.92;6.00;;;;;;;11.26;85.40;101006.37;1758177;81;21448;-87
2022/10/24 05:26:07;;;;;;;4.70;4.10;;;;;;;11.36;85.31;101005.38;1758125;81;20834;-86
2022/10/24 05:28:34;;;;;;;5.33;4.62;;;;;;;11.46;85.00;101016.21;1758009;80;21212;-85
2022/10/24 05:31:00;;;;;;;4.92;4.53;;;;;;;11.51;84.78;101013.69;1758203;81;20971;-86
2022/10/24 05:33:27;;;;;;;6.78;4.62;;;;;;;11.55;84.44;101020.94;1758571;81;20889;-86
2022/10/24 05:35:54;;;;;;;6.45;5.55;;;;;;;11.56;84.31;101026.11;1757953;81;20889;-86
2022/10/24 05:38:21;;;;;;;5.45;4.95;;;;;;;11.54;84.15;101022.72;1758092;81;20956;-85
2022/10/24 05:40:50;;;;;;;5.53;5.03;;;;;;;11.51;84.06;101020.25;1758057;81;21353;-86
2022/10/24 05:43:17;;;;;;;9.55;5.33;;;;;;;11.50;84.17;101026.93;1757973;81;20924;-85
2022/10/24 05:45:43;;;;;;;6.20;5.40;;;;;;;11.51;84.33;101030.76;1748641;81;20889;-86
2022/10/24 05:48:10;;;;;;;7.08;6.17;;;;;;;11.52;84.50;101034.25;1744891;81;20929;-85
2022/10/24 05:50:36;;;;;;;7.25;5.87;;;;;;;11.57;84.84;101038.77;1744742;82;20854;-86
2022/10/24 05:53:03;;;;;;;5.05;4.62;;;;;;;11.64;85.10;101031.38;1744750;81;21236;-87
2022/10/24 05:55:30;;;;;;;5.25;4.85;;;;;;;11.73;85.12;101043.98;1744663;80;20932;-88
2022/10/24 05:57:58;;;;;;;8.33;6.03;;;;;;;11.82;85.06;101039.50;1744881;81;20960;-85
2022/10/24 06:00:25;;;;;;;6.45;5.85;;;;;;;11.93;84.97;101038.43;1744920;80;20944;-86
2022/10/24 06:02:51;;;;;;;7.10;5.17;;;;;;;12.26;85.41;101045.73;1744839;81;21359;-85
2022/10/24 06:05:19;;;;;;;6.17;5.20;;;;;;;12.72;85.45;101040.29;1744548;82;21144;-88
2022/10/24 06:07:47;;;;;;;9.75;7.22;;;;;;;13.08;83.47;101037.59;1744422;80;20893;-85
2022/10/24 06:10:14;;;;;;;8.20;5.35;;;;;;;13.24;81.92;101044.39;1744674;81;20913;-87
2022/10/24 06:12:42;;;;;;;6.00;5.50;;;;;;;13.30;80.75;101044.52;1744600;81;20972;-87
2022/10/24 06:15:11;;;;;;;7.08;5.35;;;;;;;13.29;80.17;101047.23;1744816;81;20916;-87
2022/10/24 06:17:37;;;;;;;6.00;5.40;;;;;;;13.22;79.61;101050.23;1744785;81;21135;-85
2022/10/24 06:20:05;;;;;;;7.42;6.03;;;;;;;13.15;79.50;101055.52;1745366;81;20925;-87
2022/10/24 06:22:31;;;;;;;5.87;5.30;;;;;;;13.08;79.47;101056.86;1744991;81;20972;-87
2022/10/24 06:24:59;;;;;;;6.47;5.72;;;;;;;13.02;79.76;101058.56;1744699;82;20980;-89
2022/10/24 06:27:26;;;;;;;7.35;5.85;;;;;;;12.99;79.70;101052.19;1734518;82;20975;-86
2022/10/24 06:29:52;;;;;;;6.00;5.40;;;;;;;12.91;79.55;101055.28;1744671;81;21277;-87
2022/10/24 06:32:19;;;;;;;5.70;5.10;;;;;;;12.83;79.39;101061.52;1744691;81;20941;-88
2022/10/24 06:34:45;;;;;;;6.08;5.30;;;;;;;12.76;79.36;101057.11;1744821;81;20884;-89
2022/10/24 06:37:13;;;;;;;7.15;5.20;;;;;;;12.71;79.66;101060.47;1744841;81;20956;-87
2022/10/24 06:39:39;;;;;;;7.08;5.70;;;;;;;12.69;79.92;101064.14;1745424;81;20909;-88
2022/10/24 06:42:06;;;;;;;5.62;5.15;;;;;;;12.70;80.33;101066.69;1746973;82;21768;-88
2022/10/24 06:44:34;;;;;;;6.15;5.55;;;;;;;12.74;80.19;101065.56;1746681;80;20917;-88
2022/10/24 06:47:02;;;;;;;9.48;6.55;;;;;;;12.74;80.08;101067.33;1757977;81;20924;-89
2022/10/24 06:49:29;;;;;;;9.78;6.15;;;;;;;12.73;80.11;101068.28;1758236;81;20971;-90
2022/10/24 06:51:57;;;;;;;9.68;6.17;;;;;;;12.69;79.63;101073.35;1757994;80;20880;-89
2022/10/24 06:54:23;;;;;;;8.40;6.25;;;;;;;12.63;79.62;101075.43;1757851;81;21185;-88
2022/10/24 06:56:49;;;;;;;7.12;6.45;;;;;;;12.65;79.85;101074.03;1757883;80;20991;-88
2022/10/24 06:59:17;;;;;;;6.95;5.60;;;;;;;12.73;80.36;101074.38;1757942;80;21370;-87
2022/10/24 07:01:45;;;;;;;7.80;5.72;;;;;;;12.82;80.50;101074.28;1758151;81;20892;-86
2022/10/24 07:04:13;;;;;;;7.62;5.80;;;;;;;12.91;79.99;101070.23;1757955;81;20963;-87
2022/10/24 07:06:40;;;;;;;5.92;5.17;;;;;;;12.99;79.75;101063.55;1758067;81;21284;-86
2022/10/24 07:09:07;;;;;;;5.95;5.15;;;;;;;13.08;79.59;101066.08;1758124;81;20892;-88
2022/10/24 07:11:33;;;;;;;7.40;5.00;;;;;;;13.16;78.73;101069.52;1758157;80;20915;-88
2022/10/24 07:14:02;;;;;;;6.17;4.87;;;;;;;13.20;78.21;101072.34;1758145;81;21457;-88
2022/10/24 07:16:29;;;;;;;6.15;4.75;;;;;;;13.18;77.96;101071.59;1757907;81;20904;-89
2022/10/24 07:18:56;;;;;;;6.67;6.05;;;;;;;13.19;78.06;101068.03;1758242;80;21279;-88
2022/10/24 07:21:27;;;;;;;7.10;5.65;;;;;;;13.19;77.66;101071.50;1758524;81;20936;-87
2022/10/24 07:23:54;;;;;;;8.40;6.20;;;;;;;13.16;77.60;101071.72;1758615;81;20896;-88
2022/10/24 07:26:21;;;;;;;7.33;5.58;;;;;;;13.10;77.48;101076.05;1757979;81;20975;-87
2022/10/24 07:28:52;;;;;;;7.53;6.53;;;;;;;13.06;77.57;101076.70;1758131;80;20869;-88
2022/10/24 07:31:17;;;;;;;31.65;28.27;;;;;;;13.03;77.47;101082.17;1757861;81;21357;-90
2022/10/24 07:33:44;;;;;;;6.85;6.15;;;;;;;12.99;77.56;101082.45;1757805;80;20888;-90
2022/10/24 07:36:18;;;;;;;6.65;5.53;;;;;;;12.94;77.50;101081.88;1758206;80;20905;-87
2022/10/24 07:38:47;;;;;;;9.35;6.78;;;;;;;12.91;77.97;101089.98;1757879;81;20899;-88
2022/10/24 07:41:15;;;;;;;7.95;5.78;;;;;;;12.91;78.46;101078.97;1741566;80;20880;-89
2022/10/24 07:43:42;;;;;;;8.40;5.72;;;;;;;13.01;78.92;101084.53;1758134;81;21229;-88
2022/10/24 07:46:12;;;;;;;7.00;4.55;;;;;;;13.14;79.23;101079.31;1750482;81;20964;-88
2022/10/24 07:48:41;;;;;;;5.62;5.20;;;;;;;13.29;78.37;101081.48;1744998;81;20980;-89
2022/10/24 07:51:08;;;;;;;4.92;4.37;;;;;;;13.42;77.58;101086.34;1745404;81;21353;-88
2022/10/24 07:53:35;;;;;;;7.30;4.20;;;;;;;13.54;77.05;101076.78;1745780;81;20853;-89
2022/10/24 07:56:07;;;;;;;4.83;3.98;;;;;;;13.61;76.82;101078.09;1744935;81;21137;-88
2022/10/24 07:58:32;;;;;;;4.80;4.30;;;;;;;13.70;76.47;101078.80;1744462;81;20941;-88
2022/10/24 08:01:14;;;;;;;4.05;3.62;;;;;;;13.75;76.00;101088.56;1744681;81;21619;-89
2022/10/24 08:03:42;;;;;;;4.15;3.62;;;;;;;13.79;75.15;101085.27;1744706;82;20984;-88
2022/10/24 08:06:12;;;;;;;5.37;4.17;;;;;;;13.75;74.20;101093.00;1744602;81;20940;-89
2022/10/24 08:08:38;;;;;;;6.50;4.40;;;;;;;13.68;74.00;101089.44;1744652;81;21130;-87
2022/10/24 08:11:20;;;;;;;4.70;3.65;;;;;;;13.61;73.88;101088.16;1744510;81;21366;-89
2022/10/24 08:13:49;;;;;;;4.78;3.95;;;;;;;13.57;74.13;101085.34;1744596;81;20984;-88
2022/10/24 08:16:17;;;;;;;4.60;4.08;;;;;;;13.60;74.54;101081.18;1744719;81;21446;-89
2022/10/24 08:18:43;;;;;;;5.72;3.80;;;;;;;13.68;74.63;101081.53;1745273;81;21370;-88
2022/10/24 08:21:12;;;;;;;7.85;4.37;;;;;;;13.83;74.67;101084.13;1745113;81;21831;-86
2022/10/24 08:23:43;;;;;;;5.67;4.58;;;;;;;13.98;74.25;101080.44;1744937;81;20921;-87
2022/10/24 08:26:13;;;;;;;5.42;4.30;;;;;;;14.24;74.33;101090.55;1744832;80;20909;-87
2022/10/24 08:28:41;;;;;;;4.22;3.87;;;;;;;14.50;73.57;101090.58;1744826;81;21061;-87
2022/10/24 08:31:13;;;;;;;4.33;3.33;;;;;;;14.97;73.42;101086.44;1745090;82;20992;-88
2022/10/24 08:33:40;;;;;;;4.65;4.25;;;;;;;15.71;69.30;101093.85;1744984;81;21946;-88
2022/10/24 08:36:24;;;;;;;4.80;4.22;;;;;;;15.83;68.48;101107.98;1745336;81;20877;-87
2022/10/24 08:38:51;;;;;;;8.18;4.10;;;;;;;15.83;68.48;101107.98;1745545;81;20933;-87
2022/10/24 08:41:42;;;;;;;4.15;3.75;;;;;;;15.84;67.60;101112.79;1745626;81;20964;-87
2022/10/24 08:44:38;;;;;;;4.55;3.42;;;;;;;16.00;67.64;101112.48;1745313;80;20993;-86
2022/10/24 08:47:27;;;;;;;3.58;3.30;;;;;;;16.41;66.81;101108.48;1756330;81;21272;-88
2022/10/24 08:50:06;;;;;;;5.28;4.75;;;;;;;17.00;64.15;101113.61;1758168;81;20873;-85
2022/10/24 08:53:15;;;;;;;3.40;2.90;;;;;;;17.69;62.03;101109.36;1758168;80;20986;-86
2022/10/24 08:55:54;;;;;;;35.52;29.63;;;;;;;18.05;60.13;101109.13;1758248;81;21492;-86
2022/10/24 08:58:34;;;;;;;4.55;4.15;;;;;;;18.16;59.59;101119.68;1755067;80;20900;-86
2022/10/24 09:01:05;;;;;;;3.40;3.10;;;;;;;17.98;58.63;101119.41;1758384;81;21130;-85
2022/10/24 09:03:42;;;;;;;3.70;3.40;;;;;;;17.60;58.93;101110.95;1759228;80;21417;-86
2022/10/24 09:06:23;;;;;;;6.00;5.37;;;;;;;17.43;59.91;101112.84;1759344;81;21385;-86
2022/10/24 09:08:55;;;;;;;5.20;3.30;;;;;;;17.24;60.34;101101.54;1759232;81;20936;-85
2022/10/24 09:11:53;;;;;;;4.03;3.60;;;;;;;17.07;60.04;101104.69;1758932;81;20888;-87
2022/10/24 09:14:29;;;;;;;3.98;2.77;;;;;;;16.94;60.52;101103.03;1757844;81;21347;-88
2022/10/24 09:17:18;;;;;;;2.83;2.62;;;;;;;17.28;61.46;101104.31;1757959;81;20900;-87
2022/10/24 09:19:59;;;;;;;2.02;1.92;;;;;;;17.81;60.19;101096.46;1758121;81;20908;-86
2022/10/24 09:22:29;;;;;;;3.20;2.25;;;;;;;18.33;57.09;101104.99;1758179;81;20951;-86
2022/10/24 09:25:05;;;;;;;3.52;2.67;;;;;;;18.69;54.79;101106.78;1741364;80;20849;-86
2022/10/24 09:27:37;;;;;;;5.35;1.98;;;;;;;18.68;54.07;101104.63;1758369;81;21240;-87
2022/10/24 09:30:07;;;;;;;3.35;3.05;;;;;;;18.62;54.48;101107.80;1758285;81;20856;-86
2022/10/24 09:32:34;;;;;;;4.80;3.05;;;;;;;18.57;54.43;101117.50;1758221;80;20935;-88
2022/10/24 09:35:07;;;;;;;107.47;96.10;;;;;;;18.53;54.54;101123.20;1758222;81;20984;-86
2022/10/24 09:37:40;;;;;;;8.28;7.42;;;;;;;18.53;54.42;101115.23;1758404;81;20916;-86
2022/10/24 09:40:25;;;;;;;3.73;2.97;;;;;;;18.60;53.91;101109.25;1758461;81;21139;-85
2022/10/24 09:43:15;;;;;;;3.15;2.17;;;;;;;18.85;53.42;101104.50;1758942;78;21358;-85
2022/10/24 09:45:45;;;;;;;2.47;1.55;;;;;;;19.16;52.94;101103.97;1756392;80;21394;-87
2022/10/24 09:48:26;;;;;;;1.30;1.20;;;;;;;19.48;51.66;101100.27;1744166;81;20936;-89
2022/10/24 09:50:52;;;;;;;1.85;1.67;;;;;;;19.68;51.66;101111.77;1744794;80;21045;-88
2022/10/24 09:53:39;;;;;;;3.00;2.05;;;;;;;20.01;50.00;101099.89;1746069;81;21104;-85
2022/10/24 09:56:12;;;;;;;4.60;2.22;;;;;;;20.23;48.78;101105.40;1748004;78;20863;-85
2022/10/24 09:58:40;;;;;;;1.20;0.90;;;;;;;20.32;47.06;101110.83;1747753;79;21000;-82
2022/10/24 10:01:19;;;;;;;0.88;0.88;;;;;;;20.20;46.95;101107.50;1747595;81;20861;-81
2022/10/24 10:04:04;;;;;;;1.22;0.80;;;;;;;19.97;47.97;101114.96;1745028;81;20885;-85
2022/10/24 10:06:31;;;;;;;2.05;0.80;;;;;;;19.70;48.12;101113.84;1744909;81;21136;-86
2022/10/24 10:08:59;;;;;;;1.40;1.17;;;;;;;19.39;48.69;101114.41;1744757;81;20960;-85
2022/10/24 10:11:32;;;;;;;9.80;8.88;;;;;;;19.35;48.72;101111.66;1744955;81;20936;-85
2022/10/24 10:14:00;;;;;;;10.00;8.53;;;;;;;19.33;49.32;101115.78;1745066;81;20991;-86
2022/10/24 10:16:35;;;;;;;41.63;37.20;;;;;;;19.43;48.93;101107.34;1734291;81;20980;-86
2022/10/24 10:19:18;;;;;;;2.10;2.00;;;;;;;19.28;48.51;101111.86;1744693;81;21805;-85
2022/10/24 10:22:03;;;;;;;2.50;2.00;;;;;;;19.07;48.96;101111.93;1744595;80;21649;-84
2022/10/24 10:24:43;;;;;;;333.95;275.93;;;;;;;19.01;49.54;101112.83;1744060;81;20897;-85
2022/10/24 10:27:32;;;;;;;9.18;8.10;;;;;;;19.17;49.56;101111.48;1744835;81;21035;-85
2022/10/24 10:30:16;;;;;;;8.88;7.20;;;;;;;19.18;48.93;101106.50;1744569;81;21489;-85
2022/10/24 10:33:24;;;;;;;1.65;1.55;;;;;;;19.25;49.13;101114.28;1744683;81;21192;-85
2022/10/24 10:36:03;;;;;;;2.52;2.33;;;;;;;19.44;48.93;101120.98;1712601;81;20890;-83
2022/10/24 10:38:50;;;;;;;1.70;1.60;;;;;;;19.61;48.40;101122.13;1744713;81;21039;-84
2022/10/24 10:41:28;;;;;;;5.05;3.65;;;;;;;19.66;48.45;101117.72;1736559;81;20969;-84
2022/10/24 10:44:47;;;;;;;1.00;1.00;;;;;;;19.61;48.14;101118.14;1736735;81;20946;-85
2022/10/24 10:47:52;;;;;;;1.25;1.15;;;;;;;19.50;48.53;101113.41;1721738;82;21090;-85
2022/10/24 10:50:54;;;;;;;1.27;1.15;;;;;;;19.22;49.17;101113.23;1711933;82;21153;-83
2022/10/24 10:54:02;;;;;;;2.02;1.85;;;;;;;18.85;49.43;101112.47;1676014;84;20940;-85
2022/10/24 10:56:49;;;;;;;1.35;1.17;;;;;;;18.42;50.46;101119.64;1710110;84;20912;-86
2022/10/24 10:59:44;;;;;;;1.45;1.27;;;;;;;18.01;51.22;101119.17;1710009;82;20971;-83
2022/10/24 11:02:26;;;;;;;1.35;1.22;;;;;;;17.67;52.02;101112.63;1704905;84;21246;-85
2022/10/24 11:05:32;;;;;;;20.82;16.25;;;;;;;17.39;53.09;101116.70;1710063;83;21412;-84
2022/10/24 11:08:28;;;;;;;2.87;2.50;;;;;;;17.24;53.61;101119.27;1709981;84;20940;-85
2022/10/24 11:11:05;;;;;;;3.33;1.50;;;;;;;16.99;54.05;101118.08;1689983;84;20940;-84
2022/10/24 11:13:46;;;;;;;2.50;1.40;;;;;;;16.84;54.65;101123.75;1710015;84;20975;-85
2022/10/24 11:16:20;;;;;;;3.22;1.17;;;;;;;16.68;55.72;101126.23;1709982;82;21121;-84
2022/10/24 11:18:50;;;;;;;1.57;1.47;;;;;;;16.56;56.33;101130.68;1721621;83;20894;-83
2022/10/24 11:21:17;;;;;;;1.45;1.30;;;;;;;16.42;56.25;101124.27;1727303;81;20906;-84
2022/10/24 11:24:04;;;;;;;2.08;1.40;;;;;;;16.30;56.09;101122.56;1727210;81;21010;-85
2022/10/24 11:26:41;;;;;;;2.33;1.45;;;;;;;16.18;56.63;101118.19;1727533;81;21004;-84
2022/10/24 11:29:34;;;;;;;1.92;1.40;;;;;;;16.02;57.63;101114.54;1727302;81;21871;-83
2022/10/24 11:32:19;;;;;;;1.50;1.40;;;;;;;15.99;58.23;101121.39;1727317;81;21052;-86
2022/10/24 11:34:53;;;;;;;3.90;1.77;;;;;;;15.97;58.44;101116.20;1711824;81;20941;-85
2022/10/24 11:37:33;;;;;;;2.85;1.62;;;;;;;15.95;58.35;101114.16;1727244;81;20875;-84
2022/10/24 11:40:17;;;;;;;1.45;1.35;;;;;;;15.98;58.89;101118.37;1727280;82;21013;-84
2022/10/24 11:42:53;;;;;;;3.92;1.67;;;;;;;16.02;58.57;101123.31;1722767;81;20902;-85
2022/10/24 11:45:23;;;;;;;2.70;1.90;;;;;;;16.06;58.39;101123.45;1727193;81;21600;-84
2022/10/24 11:48:03;;;;;;;1.95;1.85;;;;;;;16.05;58.38;101124.42;1731021;80;20952;-83